Terminal Aerodrome Forecast
Issued by NWS Melbourne, FL

Home | Current Version | Previous Version | Text Only | Print | Product List | Glossary On
Versions: 1 2 3 4 5 6 7 8 9 10 11 12 13
000
FTUS42 KMLB 011700 RRA
TAFDAB
TAF
KDAB 011746Z 0118/0218 11008KT P6SM VCSH SCT040
     FM020000 12007KT P6SM FEW040 SCT250
     FM020200 00000KT P6SM FEW040=

USA.gov is the U.S. government's official web portal to all federal, state and local government web resources and services.